This is the latest recevied weather packets stored in our database for station/object OE-11149. If no packets are shown the sender has not sent any weather packets the latest 10 day(s).
| Time | Temp. | Humidity | Pressure | Rain* | Wind** | Luminosity | Snow |
|---|---|---|---|---|---|---|---|
| 1787818293 | 16.11° C | 77% | 854.7 hPa | 0 mm | - | 430 W/m² | - |
| 1787817919 | 15.56° C | 78% | 854.6 hPa | 0 mm | - | 378 W/m² | - |
| 1787817319 | 15.56° C | 78% | 854.6 hPa | 0 mm | - | 457 W/m² | - |
| 1787816492 | 15° C | 79% | 854.6 hPa | 0 mm | - | 358 W/m² | - |
| 1787816119 | 15.56° C | 78% | 854.4 hPa | 0 mm | - | 411 W/m² | - |
| 1787815517 | 15.56° C | 79% | 854.4 hPa | 0 mm | - | 397 W/m² | - |
| 1787814693 | 15° C | 81% | 854.6 hPa | 0 mm | - | 411 W/m² | - |
| 1787813720 | 14.44° C | 82% | 854.6 hPa | 0 mm | - | 338 W/m² | - |
| 1787812893 | 13.89° C | 85% | 854.7 hPa | 0 mm | - | 311 W/m² | - |
| 1787812520 | 13.33° C | 86% | 854.8 hPa | 0 mm | - | 278 W/m² | - |
| 1787811920 | 12.78° C | 87% | 854.9 hPa | 0 mm | - | 232 W/m² | - |
| 1787811332 | 12.78° C | 91% | 854.8 hPa | 0 mm | - | 192 W/m² | - |
| 1787810720 | 11.67° C | 92% | 854.9 hPa | 0 mm | - | 53 W/m² | - |
| 1787810120 | 11.67° C | 94% | 854.9 hPa | 0 mm | - | 46 W/m² | - |
| 1787809293 | 11.67° C | 94% | 855 hPa | 0 mm | - | 40 W/m² | - |
| 1787808920 | 11.67° C | 93% | 855 hPa | 0 mm | - | 40 W/m² | - |
| 1787808320 | 11.67° C | 94% | 855.2 hPa | 0 mm | - | 46 W/m² | - |
| 1787807493 | 11.11° C | 95% | 855.2 hPa | 0 mm | - | 33 W/m² | - |
| 1787807120 | 11.67° C | 94% | 855 hPa | 0 mm | - | 26 W/m² | - |
| 1787806520 | 11.67° C | 94% | 854.9 hPa | 0 mm | - | 20 W/m² | - |
| 1787805692 | 11.67° C | 95% | 854.9 hPa | 0 mm | - | 7 W/m² | - |
| 1787805320 | 11.67° C | 96% | 854.9 hPa | 0 mm | - | 0 W/m² | - |
| 1787804720 | 11.67° C | 96% | 854.9 hPa | 0 mm | - | 0 W/m² | - |
| 1787803893 | 11.67° C | 96% | 854.9 hPa | 0 mm | - | 0 W/m² | - |
| 1787803520 | 11.67° C | 97% | 854.8 hPa | 0 mm | - | 0 W/m² | - |
* Rain latest hour (hover to see other rain measurements)
** Current wind speed in m/s (hover to see current wind gust speed)